sensor_id;sensor_type;location;lat;lon;timestamp;P1;durP1;ratioP1;P2;durP2;ratioP2
29246;SDS011;16272;48.188;9.964;2022-08-01T00:01:27;10.33;;;5.77;;
29246;SDS011;16272;48.188;9.964;2022-08-01T00:04:00;10.87;;;5.60;;
29246;SDS011;16272;48.188;9.964;2022-08-01T00:06:25;9.13;;;5.33;;
29246;SDS011;16272;48.188;9.964;2022-08-01T00:08:51;10.03;;;5.60;;
29246;SDS011;16272;48.188;9.964;2022-08-01T00:11:16;9.50;;;5.63;;
29246;SDS011;16272;48.188;9.964;2022-08-01T00:13:41;11.17;;;5.43;;
29246;SDS011;16272;48.188;9.964;2022-08-01T00:16:14;10.07;;;5.60;;
29246;SDS011;16272;48.188;9.964;2022-08-01T00:18:40;10.05;;;5.60;;
29246;SDS011;16272;48.188;9.964;2022-08-01T00:21:06;9.70;;;6.00;;
29246;SDS011;16272;48.188;9.964;2022-08-01T00:23:31;10.33;;;5.93;;
29246;SDS011;16272;48.188;9.964;2022-08-01T00:25:56;10.07;;;6.00;;
29246;SDS011;16272;48.188;9.964;2022-08-01T00:28:22;9.03;;;5.57;;
29246;SDS011;16272;48.188;9.964;2022-08-01T00:30:47;10.17;;;5.57;;
29246;SDS011;16272;48.188;9.964;2022-08-01T00:33:13;8.40;;;4.93;;
29246;SDS011;16272;48.188;9.964;2022-08-01T00:35:38;10.20;;;5.33;;
29246;SDS011;16272;48.188;9.964;2022-08-01T00:38:03;11.80;;;5.27;;
29246;SDS011;16272;48.188;9.964;2022-08-01T00:40:40;9.60;;;5.23;;
29246;SDS011;16272;48.188;9.964;2022-08-01T00:43:05;9.77;;;5.80;;
29246;SDS011;16272;48.188;9.964;2022-08-01T00:45:30;9.73;;;5.70;;
29246;SDS011;16272;48.188;9.964;2022-08-01T00:47:56;11.50;;;5.90;;
29246;SDS011;16272;48.188;9.964;2022-08-01T00:50:21;12.87;;;5.60;;
29246;SDS011;16272;48.188;9.964;2022-08-01T00:52:46;11.10;;;5.83;;
29246;SDS011;16272;48.188;9.964;2022-08-01T00:55:12;9.35;;;5.40;;
29246;SDS011;16272;48.188;9.964;2022-08-01T00:57:38;10.73;;;6.05;;
29246;SDS011;16272;48.188;9.964;2022-08-01T01:00:05;9.00;;;5.53;;
29246;SDS011;16272;48.188;9.964;2022-08-01T01:02:31;11.13;;;5.68;;
29246;SDS011;16272;48.188;9.964;2022-08-01T01:04:57;11.98;;;6.10;;
29246;SDS011;16272;48.188;9.964;2022-08-01T01:07:32;11.47;;;6.30;;
29246;SDS011;16272;48.188;9.964;2022-08-01T01:15:40;8.73;;;4.60;;
29246;SDS011;16272;48.188;9.964;2022-08-01T01:18:14;10.83;;;4.67;;
29246;SDS011;16272;48.188;9.964;2022-08-01T01:20:44;10.25;;;5.57;;
29246;SDS011;16272;48.188;9.964;2022-08-01T01:23:34;10.63;;;6.25;;
29246;SDS011;16272;48.188;9.964;2022-08-01T01:28:58;11.07;;;6.22;;
29246;SDS011;16272;48.188;9.964;2022-08-01T01:31:41;9.00;;;5.47;;
29246;SDS011;16272;48.188;9.964;2022-08-01T01:34:17;10.70;;;5.75;;
29246;SDS011;16272;48.188;9.964;2022-08-01T01:36:45;11.80;;;6.22;;
29246;SDS011;16272;48.188;9.964;2022-08-01T01:39:13;11.80;;;5.47;;
29246;SDS011;16272;48.188;9.964;2022-08-01T01:41:40;9.93;;;6.07;;
29246;SDS011;16272;48.188;9.964;2022-08-01T01:44:07;11.10;;;5.57;;
29246;SDS011;16272;48.188;9.964;2022-08-01T01:46:36;9.27;;;5.60;;
29246;SDS011;16272;48.188;9.964;2022-08-01T01:49:02;9.27;;;5.28;;
29246;SDS011;16272;48.188;9.964;2022-08-01T01:51:29;10.88;;;5.82;;
29246;SDS011;16272;48.188;9.964;2022-08-01T01:53:56;10.60;;;6.05;;
29246;SDS011;16272;48.188;9.964;2022-08-01T01:56:24;10.43;;;5.73;;
29246;SDS011;16272;48.188;9.964;2022-08-01T01:58:52;9.52;;;5.30;;
29246;SDS011;16272;48.188;9.964;2022-08-01T02:01:21;9.15;;;5.20;;
29246;SDS011;16272;48.188;9.964;2022-08-01T02:03:49;9.90;;;5.43;;
29246;SDS011;16272;48.188;9.964;2022-08-01T02:06:17;12.10;;;5.65;;
29246;SDS011;16272;48.188;9.964;2022-08-01T02:08:43;16.70;;;5.40;;
29246;SDS011;16272;48.188;9.964;2022-08-01T02:11:10;9.68;;;5.65;;
29246;SDS011;16272;48.188;9.964;2022-08-01T02:13:47;9.68;;;5.50;;
29246;SDS011;16272;48.188;9.964;2022-08-01T02:16:17;8.88;;;5.53;;
29246;SDS011;16272;48.188;9.964;2022-08-01T02:18:44;10.88;;;5.60;;
29246;SDS011;16272;48.188;9.964;2022-08-01T02:21:10;11.20;;;6.13;;
29246;SDS011;16272;48.188;9.964;2022-08-01T02:23:38;10.17;;;5.10;;
29246;SDS011;16272;48.188;9.964;2022-08-01T02:26:07;9.88;;;5.15;;
29246;SDS011;16272;48.188;9.964;2022-08-01T02:28:41;9.52;;;5.20;;
29246;SDS011;16272;48.188;9.964;2022-08-01T02:31:13;11.23;;;5.85;;
29246;SDS011;16272;48.188;9.964;2022-08-01T02:33:43;11.20;;;5.53;;
29246;SDS011;16272;48.188;9.964;2022-08-01T02:36:11;11.60;;;5.30;;
29246;SDS011;16272;48.188;9.964;2022-08-01T02:38:40;11.40;;;6.10;;
29246;SDS011;16272;48.188;9.964;2022-08-01T02:41:07;10.85;;;5.53;;
29246;SDS011;16272;48.188;9.964;2022-08-01T02:43:38;8.60;;;4.75;;
29246;SDS011;16272;48.188;9.964;2022-08-01T02:46:11;10.73;;;4.93;;
29246;SDS011;16272;48.188;9.964;2022-08-01T02:48:41;11.20;;;5.40;;
29246;SDS011;16272;48.188;9.964;2022-08-01T02:51:08;10.35;;;5.30;;
29246;SDS011;16272;48.188;9.964;2022-08-01T02:53:36;10.23;;;5.35;;
29246;SDS011;16272;48.188;9.964;2022-08-01T02:56:11;9.27;;;4.80;;
29246;SDS011;16272;48.188;9.964;2022-08-01T02:58:39;10.85;;;5.03;;
29246;SDS011;16272;48.188;9.964;2022-08-01T03:01:06;10.67;;;5.03;;
29246;SDS011;16272;48.188;9.964;2022-08-01T03:03:34;9.38;;;5.20;;
29246;SDS011;16272;48.188;9.964;2022-08-01T03:06:00;9.65;;;5.25;;
29246;SDS011;16272;48.188;9.964;2022-08-01T03:08:27;9.70;;;4.95;;
29246;SDS011;16272;48.188;9.964;2022-08-01T03:10:54;9.13;;;5.18;;
29246;SDS011;16272;48.188;9.964;2022-08-01T03:13:21;9.87;;;5.10;;
29246;SDS011;16272;48.188;9.964;2022-08-01T03:15:48;9.23;;;4.90;;
29246;SDS011;16272;48.188;9.964;2022-08-01T03:18:15;9.13;;;4.93;;
29246;SDS011;16272;48.188;9.964;2022-08-01T03:20:42;9.32;;;4.65;;
29246;SDS011;16272;48.188;9.964;2022-08-01T03:23:08;8.82;;;4.95;;
29246;SDS011;16272;48.188;9.964;2022-08-01T03:25:38;9.27;;;4.70;;
29246;SDS011;16272;48.188;9.964;2022-08-01T03:28:06;9.18;;;5.03;;
29246;SDS011;16272;48.188;9.964;2022-08-01T03:30:32;10.75;;;5.07;;
29246;SDS011;16272;48.188;9.964;2022-08-01T03:32:58;9.82;;;4.80;;
29246;SDS011;16272;48.188;9.964;2022-08-01T03:35:28;9.43;;;4.72;;
29246;SDS011;16272;48.188;9.964;2022-08-01T03:37:58;9.60;;;4.73;;
29246;SDS011;16272;48.188;9.964;2022-08-01T03:40:30;10.40;;;4.63;;
29246;SDS011;16272;48.188;9.964;2022-08-01T03:43:12;10.82;;;5.10;;
29246;SDS011;16272;48.188;9.964;2022-08-01T03:45:45;9.00;;;4.80;;
29246;SDS011;16272;48.188;9.964;2022-08-01T03:48:16;10.52;;;4.95;;
29246;SDS011;16272;48.188;9.964;2022-08-01T03:50:43;10.43;;;5.10;;
29246;SDS011;16272;48.188;9.964;2022-08-01T03:53:11;9.25;;;5.10;;
29246;SDS011;16272;48.188;9.964;2022-08-01T03:55:42;9.10;;;4.32;;
29246;SDS011;16272;48.188;9.964;2022-08-01T03:58:09;9.52;;;4.68;;
29246;SDS011;16272;48.188;9.964;2022-08-01T04:00:36;9.85;;;4.80;;
29246;SDS011;16272;48.188;9.964;2022-08-01T04:03:04;8.67;;;4.63;;
29246;SDS011;16272;48.188;9.964;2022-08-01T04:05:31;10.32;;;4.47;;
29246;SDS011;16272;48.188;9.964;2022-08-01T04:07:57;10.53;;;5.63;;
29246;SDS011;16272;48.188;9.964;2022-08-01T04:10:24;10.65;;;4.57;;
29246;SDS011;16272;48.188;9.964;2022-08-01T04:12:50;10.75;;;4.32;;
29246;SDS011;16272;48.188;9.964;2022-08-01T04:15:16;9.50;;;4.85;;
29246;SDS011;16272;48.188;9.964;2022-08-01T04:17:47;8.65;;;4.55;;
29246;SDS011;16272;48.188;9.964;2022-08-01T04:20:13;10.17;;;5.20;;
29246;SDS011;16272;48.188;9.964;2022-08-01T04:22:38;9.70;;;4.70;;
29246;SDS011;16272;48.188;9.964;2022-08-01T04:25:05;9.13;;;4.83;;
29246;SDS011;16272;48.188;9.964;2022-08-01T04:27:36;8.75;;;4.30;;
29246;SDS011;16272;48.188;9.964;2022-08-01T04:30:05;10.05;;;4.70;;
29246;SDS011;16272;48.188;9.964;2022-08-01T04:32:32;9.50;;;4.78;;
29246;SDS011;16272;48.188;9.964;2022-08-01T04:35:00;11.38;;;4.93;;
29246;SDS011;16272;48.188;9.964;2022-08-01T04:37:29;10.40;;;4.70;;
29246;SDS011;16272;48.188;9.964;2022-08-01T04:39:55;8.75;;;4.65;;
29246;SDS011;16272;48.188;9.964;2022-08-01T04:42:22;10.27;;;4.95;;
29246;SDS011;16272;48.188;9.964;2022-08-01T04:44:48;11.87;;;4.70;;
29246;SDS011;16272;48.188;9.964;2022-08-01T04:47:13;10.93;;;4.73;;
29246;SDS011;16272;48.188;9.964;2022-08-01T04:49:39;10.23;;;5.00;;
29246;SDS011;16272;48.188;9.964;2022-08-01T04:52:05;8.77;;;4.53;;
29246;SDS011;16272;48.188;9.964;2022-08-01T04:54:32;8.80;;;4.87;;
29246;SDS011;16272;48.188;9.964;2022-08-01T04:57:01;10.10;;;4.50;;
29246;SDS011;16272;48.188;9.964;2022-08-01T04:59:28;9.90;;;4.90;;
29246;SDS011;16272;48.188;9.964;2022-08-01T05:02:09;10.35;;;5.05;;
29246;SDS011;16272;48.188;9.964;2022-08-01T05:04:36;9.52;;;4.72;;
29246;SDS011;16272;48.188;9.964;2022-08-01T05:07:03;8.93;;;4.60;;
29246;SDS011;16272;48.188;9.964;2022-08-01T05:09:29;10.38;;;4.72;;
29246;SDS011;16272;48.188;9.964;2022-08-01T05:11:55;8.60;;;4.45;;
29246;SDS011;16272;48.188;9.964;2022-08-01T05:14:23;12.00;;;5.40;;
29246;SDS011;16272;48.188;9.964;2022-08-01T05:16:48;9.30;;;5.10;;
29246;SDS011;16272;48.188;9.964;2022-08-01T05:19:13;10.80;;;5.20;;
29246;SDS011;16272;48.188;9.964;2022-08-01T05:21:39;9.10;;;4.67;;
29246;SDS011;16272;48.188;9.964;2022-08-01T05:24:04;8.87;;;5.00;;
29246;SDS011;16272;48.188;9.964;2022-08-01T05:26:30;9.13;;;4.80;;
29246;SDS011;16272;48.188;9.964;2022-08-01T05:28:55;9.80;;;4.57;;
29246;SDS011;16272;48.188;9.964;2022-08-01T05:31:21;8.70;;;4.60;;
29246;SDS011;16272;48.188;9.964;2022-08-01T05:33:46;9.73;;;4.82;;
29246;SDS011;16272;48.188;9.964;2022-08-01T05:36:11;9.00;;;4.90;;
29246;SDS011;16272;48.188;9.964;2022-08-01T05:38:37;9.07;;;4.47;;
29246;SDS011;16272;48.188;9.964;2022-08-01T05:41:02;9.23;;;4.80;;
29246;SDS011;16272;48.188;9.964;2022-08-01T05:43:27;9.73;;;5.33;;
29246;SDS011;16272;48.188;9.964;2022-08-01T05:45:53;10.13;;;5.33;;
29246;SDS011;16272;48.188;9.964;2022-08-01T05:48:18;9.70;;;5.30;;
29246;SDS011;16272;48.188;9.964;2022-08-01T05:50:44;9.50;;;5.20;;
29246;SDS011;16272;48.188;9.964;2022-08-01T05:53:10;10.17;;;5.50;;
29246;SDS011;16272;48.188;9.964;2022-08-01T05:55:35;11.70;;;5.27;;
29246;SDS011;16272;48.188;9.964;2022-08-01T05:58:01;9.00;;;4.60;;
29246;SDS011;16272;48.188;9.964;2022-08-01T06:00:27;9.80;;;4.78;;
29246;SDS011;16272;48.188;9.964;2022-08-01T06:02:52;10.10;;;4.90;;
29246;SDS011;16272;48.188;9.964;2022-08-01T06:05:17;10.87;;;5.13;;
29246;SDS011;16272;48.188;9.964;2022-08-01T06:07:43;9.27;;;4.30;;
29246;SDS011;16272;48.188;9.964;2022-08-01T06:10:08;10.23;;;4.40;;
29246;SDS011;16272;48.188;9.964;2022-08-01T06:12:34;7.75;;;4.00;;
29246;SDS011;16272;48.188;9.964;2022-08-01T06:15:00;8.90;;;4.30;;
29246;SDS011;16272;48.188;9.964;2022-08-01T06:17:25;10.63;;;3.83;;
29246;SDS011;16272;48.188;9.964;2022-08-01T06:19:50;8.87;;;4.10;;
29246;SDS011;16272;48.188;9.964;2022-08-01T06:22:16;10.10;;;3.43;;
29246;SDS011;16272;48.188;9.964;2022-08-01T06:24:41;8.37;;;3.60;;
29246;SDS011;16272;48.188;9.964;2022-08-01T06:27:06;7.20;;;3.20;;
29246;SDS011;16272;48.188;9.964;2022-08-01T06:29:32;7.07;;;3.13;;
29246;SDS011;16272;48.188;9.964;2022-08-01T06:31:57;6.80;;;3.17;;
29246;SDS011;16272;48.188;9.964;2022-08-01T06:34:23;7.50;;;2.80;;
29246;SDS011;16272;48.188;9.964;2022-08-01T06:36:48;6.63;;;2.87;;
29246;SDS011;16272;48.188;9.964;2022-08-01T06:39:14;7.53;;;3.20;;
29246;SDS011;16272;48.188;9.964;2022-08-01T06:41:39;6.67;;;3.10;;
29246;SDS011;16272;48.188;9.964;2022-08-01T06:44:06;8.48;;;3.20;;
29246;SDS011;16272;48.188;9.964;2022-08-01T06:46:32;7.00;;;3.33;;
29246;SDS011;16272;48.188;9.964;2022-08-01T06:48:57;8.30;;;2.97;;
29246;SDS011;16272;48.188;9.964;2022-08-01T06:51:22;8.23;;;3.13;;
29246;SDS011;16272;48.188;9.964;2022-08-01T06:53:48;7.70;;;2.80;;
29246;SDS011;16272;48.188;9.964;2022-08-01T06:56:13;8.40;;;3.23;;
29246;SDS011;16272;48.188;9.964;2022-08-01T06:58:38;7.70;;;2.87;;
29246;SDS011;16272;48.188;9.964;2022-08-01T07:01:04;6.57;;;2.73;;
29246;SDS011;16272;48.188;9.964;2022-08-01T07:03:34;9.15;;;2.53;;
29246;SDS011;16272;48.188;9.964;2022-08-01T07:06:00;7.40;;;2.80;;
29246;SDS011;16272;48.188;9.964;2022-08-01T07:08:25;6.90;;;2.80;;
29246;SDS011;16272;48.188;9.964;2022-08-01T07:10:51;12.97;;;2.77;;
29246;SDS011;16272;48.188;9.964;2022-08-01T07:13:16;6.30;;;2.77;;
29246;SDS011;16272;48.188;9.964;2022-08-01T07:15:46;7.88;;;2.60;;
29246;SDS011;16272;48.188;9.964;2022-08-01T07:18:12;7.63;;;3.00;;
29246;SDS011;16272;48.188;9.964;2022-08-01T07:20:37;7.03;;;2.57;;
29246;SDS011;16272;48.188;9.964;2022-08-01T07:23:03;7.57;;;3.00;;
29246;SDS011;16272;48.188;9.964;2022-08-01T07:25:28;9.07;;;3.07;;
29246;SDS011;16272;48.188;9.964;2022-08-01T07:27:54;7.68;;;3.22;;
29246;SDS011;16272;48.188;9.964;2022-08-01T07:30:19;8.50;;;3.10;;
29246;SDS011;16272;48.188;9.964;2022-08-01T07:32:44;7.07;;;2.77;;
29246;SDS011;16272;48.188;9.964;2022-08-01T07:35:10;6.73;;;2.60;;
29246;SDS011;16272;48.188;9.964;2022-08-01T07:37:35;7.23;;;2.90;;
29246;SDS011;16272;48.188;9.964;2022-08-01T07:40:01;7.18;;;2.92;;
29246;SDS011;16272;48.188;9.964;2022-08-01T07:42:28;8.43;;;2.73;;
29246;SDS011;16272;48.188;9.964;2022-08-01T07:44:54;6.40;;;2.70;;
29246;SDS011;16272;48.188;9.964;2022-08-01T07:47:25;6.93;;;2.33;;
29246;SDS011;16272;48.188;9.964;2022-08-01T07:49:58;6.30;;;2.60;;
29246;SDS011;16272;48.188;9.964;2022-08-01T07:52:24;6.95;;;2.70;;
29246;SDS011;16272;48.188;9.964;2022-08-01T07:54:49;7.27;;;2.80;;
29246;SDS011;16272;48.188;9.964;2022-08-01T07:57:15;7.13;;;2.80;;
29246;SDS011;16272;48.188;9.964;2022-08-01T07:59:40;7.07;;;2.92;;
29246;SDS011;16272;48.188;9.964;2022-08-01T08:02:05;6.83;;;2.50;;
29246;SDS011;16272;48.188;9.964;2022-08-01T08:04:31;8.27;;;2.50;;
29246;SDS011;16272;48.188;9.964;2022-08-01T08:06:56;6.30;;;2.50;;
29246;SDS011;16272;48.188;9.964;2022-08-01T08:09:21;7.63;;;2.50;;
29246;SDS011;16272;48.188;9.964;2022-08-01T08:11:47;5.90;;;2.00;;
29246;SDS011;16272;48.188;9.964;2022-08-01T08:14:13;6.40;;;2.30;;
29246;SDS011;16272;48.188;9.964;2022-08-01T08:16:39;6.70;;;2.40;;
29246;SDS011;16272;48.188;9.964;2022-08-01T08:19:04;6.40;;;2.30;;
29246;SDS011;16272;48.188;9.964;2022-08-01T08:21:29;6.80;;;2.50;;
29246;SDS011;16272;48.188;9.964;2022-08-01T08:23:55;7.60;;;2.77;;
29246;SDS011;16272;48.188;9.964;2022-08-01T08:26:39;6.53;;;2.60;;
29246;SDS011;16272;48.188;9.964;2022-08-01T08:29:05;6.85;;;2.47;;
29246;SDS011;16272;48.188;9.964;2022-08-01T08:31:31;6.32;;;2.60;;
29246;SDS011;16272;48.188;9.964;2022-08-01T08:33:56;6.27;;;2.50;;
29246;SDS011;16272;48.188;9.964;2022-08-01T08:36:22;6.57;;;2.50;;
29246;SDS011;16272;48.188;9.964;2022-08-01T08:38:47;7.03;;;2.77;;
29246;SDS011;16272;48.188;9.964;2022-08-01T08:41:12;7.37;;;2.70;;
29246;SDS011;16272;48.188;9.964;2022-08-01T08:43:39;6.03;;;2.50;;
29246;SDS011;16272;48.188;9.964;2022-08-01T08:46:05;6.97;;;2.67;;
29246;SDS011;16272;48.188;9.964;2022-08-01T08:48:33;7.03;;;2.90;;
29246;SDS011;16272;48.188;9.964;2022-08-01T08:50:59;6.53;;;2.58;;
29246;SDS011;16272;48.188;9.964;2022-08-01T08:53:26;6.15;;;2.58;;
29246;SDS011;16272;48.188;9.964;2022-08-01T08:55:52;6.30;;;2.33;;
29246;SDS011;16272;48.188;9.964;2022-08-01T08:58:18;6.72;;;2.50;;
29246;SDS011;16272;48.188;9.964;2022-08-01T09:00:44;8.13;;;2.40;;
29246;SDS011;16272;48.188;9.964;2022-08-01T09:03:10;6.73;;;2.30;;
29246;SDS011;16272;48.188;9.964;2022-08-01T09:05:37;6.22;;;2.33;;
29246;SDS011;16272;48.188;9.964;2022-08-01T09:08:05;7.23;;;2.60;;
29246;SDS011;16272;48.188;9.964;2022-08-01T09:10:31;6.55;;;2.20;;
29246;SDS011;16272;48.188;9.964;2022-08-01T09:13:11;6.90;;;2.67;;
29246;SDS011;16272;48.188;9.964;2022-08-01T09:18:03;6.23;;;2.47;;
29246;SDS011;16272;48.188;9.964;2022-08-01T09:20:29;5.97;;;2.30;;
29246;SDS011;16272;48.188;9.964;2022-08-01T09:22:54;6.32;;;2.50;;
29246;SDS011;16272;48.188;9.964;2022-08-01T09:25:19;6.63;;;2.50;;
29246;SDS011;16272;48.188;9.964;2022-08-01T09:27:45;6.40;;;2.13;;
29246;SDS011;16272;48.188;9.964;2022-08-01T09:30:14;6.17;;;2.70;;
29246;SDS011;16272;48.188;9.964;2022-08-01T09:32:57;11.70;;;3.13;;
29246;SDS011;16272;48.188;9.964;2022-08-01T09:35:32;6.20;;;2.70;;
29246;SDS011;16272;48.188;9.964;2022-08-01T09:38:12;6.50;;;2.60;;
29246;SDS011;16272;48.188;9.964;2022-08-01T09:41:00;5.88;;;2.30;;
29246;SDS011;16272;48.188;9.964;2022-08-01T09:43:26;9.10;;;2.90;;
29246;SDS011;16272;48.188;9.964;2022-08-01T09:45:53;6.40;;;2.58;;
29246;SDS011;16272;48.188;9.964;2022-08-01T09:48:20;5.78;;;2.40;;
29246;SDS011;16272;48.188;9.964;2022-08-01T09:50:46;6.47;;;2.60;;
29246;SDS011;16272;48.188;9.964;2022-08-01T09:53:13;6.35;;;2.70;;
29246;SDS011;16272;48.188;9.964;2022-08-01T09:55:40;6.13;;;2.40;;
29246;SDS011;16272;48.188;9.964;2022-08-01T09:58:06;6.03;;;2.10;;
29246;SDS011;16272;48.188;9.964;2022-08-01T10:00:33;7.60;;;2.97;;
29246;SDS011;16272;48.188;9.964;2022-08-01T10:02:59;6.63;;;2.20;;
29246;SDS011;16272;48.188;9.964;2022-08-01T10:05:31;6.32;;;2.67;;
29246;SDS011;16272;48.188;9.964;2022-08-01T10:07:59;5.82;;;2.40;;
29246;SDS011;16272;48.188;9.964;2022-08-01T10:10:26;6.53;;;2.40;;
29246;SDS011;16272;48.188;9.964;2022-08-01T10:12:51;6.70;;;2.30;;
29246;SDS011;16272;48.188;9.964;2022-08-01T10:15:17;6.27;;;2.43;;
29246;SDS011;16272;48.188;9.964;2022-08-01T10:17:49;6.07;;;2.10;;
29246;SDS011;16272;48.188;9.964;2022-08-01T10:20:19;6.45;;;2.00;;
29246;SDS011;16272;48.188;9.964;2022-08-01T10:22:45;5.47;;;2.10;;
29246;SDS011;16272;48.188;9.964;2022-08-01T10:25:12;7.10;;;2.00;;
29246;SDS011;16272;48.188;9.964;2022-08-01T10:27:41;6.10;;;2.05;;
29246;SDS011;16272;48.188;9.964;2022-08-01T10:30:11;7.18;;;2.25;;
29246;SDS011;16272;48.188;9.964;2022-08-01T10:32:37;6.13;;;2.25;;
29246;SDS011;16272;48.188;9.964;2022-08-01T10:35:04;6.13;;;2.43;;
29246;SDS011;16272;48.188;9.964;2022-08-01T10:37:30;6.80;;;1.90;;
29246;SDS011;16272;48.188;9.964;2022-08-01T10:39:57;6.20;;;1.98;;
29246;SDS011;16272;48.188;9.964;2022-08-01T10:42:23;5.43;;;2.00;;
29246;SDS011;16272;48.188;9.964;2022-08-01T10:44:48;5.77;;;2.10;;
29246;SDS011;16272;48.188;9.964;2022-08-01T10:47:17;5.68;;;2.15;;
29246;SDS011;16272;48.188;9.964;2022-08-01T10:50:02;24.33;;;2.97;;
29246;SDS011;16272;48.188;9.964;2022-08-01T10:52:32;8.15;;;2.08;;
29246;SDS011;16272;48.188;9.964;2022-08-01T10:55:01;13.57;;;2.97;;
29246;SDS011;16272;48.188;9.964;2022-08-01T10:57:44;5.93;;;2.05;;
29246;SDS011;16272;48.188;9.964;2022-08-01T11:00:17;5.73;;;2.03;;
29246;SDS011;16272;48.188;9.964;2022-08-01T11:02:56;6.05;;;2.05;;
29246;SDS011;16272;48.188;9.964;2022-08-01T11:05:23;6.38;;;2.10;;
29246;SDS011;16272;48.188;9.964;2022-08-01T11:07:53;7.40;;;2.10;;
29246;SDS011;16272;48.188;9.964;2022-08-01T11:10:30;6.10;;;2.08;;
29246;SDS011;16272;48.188;9.964;2022-08-01T11:12:58;5.93;;;2.00;;
29246;SDS011;16272;48.188;9.964;2022-08-01T11:15:27;5.80;;;1.80;;
29246;SDS011;16272;48.188;9.964;2022-08-01T11:17:53;5.40;;;2.30;;
29246;SDS011;16272;48.188;9.964;2022-08-01T11:20:20;6.70;;;2.10;;
29246;SDS011;16272;48.188;9.964;2022-08-01T11:33:06;34.20;;;3.53;;
29246;SDS011;16272;48.188;9.964;2022-08-01T11:35:32;13.20;;;2.43;;
29246;SDS011;16272;48.188;9.964;2022-08-01T11:41:09;7.65;;;2.50;;
29246;SDS011;16272;48.188;9.964;2022-08-01T11:43:34;5.90;;;2.03;;
29246;SDS011;16272;48.188;9.964;2022-08-01T11:45:59;5.70;;;2.13;;
29246;SDS011;16272;48.188;9.964;2022-08-01T11:48:25;6.10;;;2.07;;
29246;SDS011;16272;48.188;9.964;2022-08-01T11:50:52;5.78;;;2.20;;
29246;SDS011;16272;48.188;9.964;2022-08-01T11:53:18;12.02;;;2.28;;
29246;SDS011;16272;48.188;9.964;2022-08-01T11:55:53;6.38;;;2.33;;
29246;SDS011;16272;48.188;9.964;2022-08-01T11:58:23;6.18;;;1.98;;
29246;SDS011;16272;48.188;9.964;2022-08-01T12:00:52;6.83;;;2.13;;
29246;SDS011;16272;48.188;9.964;2022-08-01T12:03:23;18.33;;;2.50;;
29246;SDS011;16272;48.188;9.964;2022-08-01T12:05:50;43.00;;;4.15;;
29246;SDS011;16272;48.188;9.964;2022-08-01T12:08:24;17.83;;;2.93;;
29246;SDS011;16272;48.188;9.964;2022-08-01T12:10:50;7.13;;;2.20;;
29246;SDS011;16272;48.188;9.964;2022-08-01T12:13:15;8.13;;;2.50;;
29246;SDS011;16272;48.188;9.964;2022-08-01T12:15:42;9.75;;;2.50;;
29246;SDS011;16272;48.188;9.964;2022-08-01T12:18:08;8.03;;;2.40;;
29246;SDS011;16272;48.188;9.964;2022-08-01T12:20:34;6.50;;;2.60;;
29246;SDS011;16272;48.188;9.964;2022-08-01T12:23:02;5.78;;;2.10;;
29246;SDS011;16272;48.188;9.964;2022-08-01T12:25:33;6.30;;;2.38;;
29246;SDS011;16272;48.188;9.964;2022-08-01T12:28:07;7.18;;;2.15;;
29246;SDS011;16272;48.188;9.964;2022-08-01T12:30:34;6.30;;;2.42;;
29246;SDS011;16272;48.188;9.964;2022-08-01T12:33:01;5.87;;;2.30;;
29246;SDS011;16272;48.188;9.964;2022-08-01T12:35:32;7.88;;;2.30;;
29246;SDS011;16272;48.188;9.964;2022-08-01T12:37:59;5.72;;;2.15;;
29246;SDS011;16272;48.188;9.964;2022-08-01T12:40:28;6.00;;;2.20;;
29246;SDS011;16272;48.188;9.964;2022-08-01T12:42:56;7.00;;;2.28;;
29246;SDS011;16272;48.188;9.964;2022-08-01T12:45:27;7.27;;;2.50;;
29246;SDS011;16272;48.188;9.964;2022-08-01T12:47:55;7.03;;;2.40;;
29246;SDS011;16272;48.188;9.964;2022-08-01T12:50:25;5.88;;;2.40;;
29246;SDS011;16272;48.188;9.964;2022-08-01T12:52:53;11.73;;;2.65;;
29246;SDS011;16272;48.188;9.964;2022-08-01T12:55:20;7.45;;;2.17;;
29246;SDS011;16272;48.188;9.964;2022-08-01T12:57:49;57.97;;;4.17;;
29246;SDS011;16272;48.188;9.964;2022-08-01T13:00:27;13.13;;;2.72;;
29246;SDS011;16272;48.188;9.964;2022-08-01T13:03:00;11.38;;;2.47;;
29246;SDS011;16272;48.188;9.964;2022-08-01T13:08:14;25.92;;;3.28;;
29246;SDS011;16272;48.188;9.964;2022-08-01T13:10:42;9.40;;;2.40;;
29246;SDS011;16272;48.188;9.964;2022-08-01T13:13:08;10.95;;;2.60;;
29246;SDS011;16272;48.188;9.964;2022-08-01T13:15:35;13.38;;;2.60;;
29246;SDS011;16272;48.188;9.964;2022-08-01T13:18:21;14.53;;;2.77;;
29246;SDS011;16272;48.188;9.964;2022-08-01T13:21:06;15.30;;;2.80;;
29246;SDS011;16272;48.188;9.964;2022-08-01T13:23:33;36.00;;;3.63;;
29246;SDS011;16272;48.188;9.964;2022-08-01T13:25:58;44.63;;;4.80;;
29246;SDS011;16272;48.188;9.964;2022-08-01T13:28:24;59.37;;;5.43;;
29246;SDS011;16272;48.188;9.964;2022-08-01T13:30:55;15.55;;;2.72;;
29246;SDS011;16272;48.188;9.964;2022-08-01T13:33:40;17.48;;;3.20;;
29246;SDS011;16272;48.188;9.964;2022-08-01T13:36:07;10.57;;;2.50;;
29246;SDS011;16272;48.188;9.964;2022-08-01T13:38:33;6.97;;;2.70;;
29246;SDS011;16272;48.188;9.964;2022-08-01T13:41:17;7.45;;;2.70;;
29246;SDS011;16272;48.188;9.964;2022-08-01T13:43:42;6.60;;;2.53;;
29246;SDS011;16272;48.188;9.964;2022-08-01T13:46:07;7.60;;;2.30;;
29246;SDS011;16272;48.188;9.964;2022-08-01T13:48:33;6.30;;;2.47;;
29246;SDS011;16272;48.188;9.964;2022-08-01T13:50:58;7.30;;;2.40;;
29246;SDS011;16272;48.188;9.964;2022-08-01T13:53:24;6.60;;;2.60;;
29246;SDS011;16272;48.188;9.964;2022-08-01T13:55:49;9.10;;;2.50;;
29246;SDS011;16272;48.188;9.964;2022-08-01T13:58:15;6.40;;;2.73;;
29246;SDS011;16272;48.188;9.964;2022-08-01T14:00:41;7.33;;;2.57;;
29246;SDS011;16272;48.188;9.964;2022-08-01T14:03:06;9.95;;;3.10;;
29246;SDS011;16272;48.188;9.964;2022-08-01T14:05:32;8.13;;;2.47;;
29246;SDS011;16272;48.188;9.964;2022-08-01T14:07:57;7.03;;;2.60;;
29246;SDS011;16272;48.188;9.964;2022-08-01T14:10:23;7.87;;;2.17;;
29246;SDS011;16272;48.188;9.964;2022-08-01T14:12:48;7.10;;;2.13;;
29246;SDS011;16272;48.188;9.964;2022-08-01T14:15:14;6.50;;;2.22;;
29246;SDS011;16272;48.188;9.964;2022-08-01T14:17:40;6.63;;;2.30;;
29246;SDS011;16272;48.188;9.964;2022-08-01T14:20:06;6.33;;;2.00;;
29246;SDS011;16272;48.188;9.964;2022-08-01T14:22:31;6.20;;;1.90;;
29246;SDS011;16272;48.188;9.964;2022-08-01T14:24:57;5.70;;;1.90;;
29246;SDS011;16272;48.188;9.964;2022-08-01T14:27:22;6.70;;;2.20;;
29246;SDS011;16272;48.188;9.964;2022-08-01T14:29:47;7.00;;;2.40;;
29246;SDS011;16272;48.188;9.964;2022-08-01T14:32:13;6.67;;;2.23;;
29246;SDS011;16272;48.188;9.964;2022-08-01T14:34:38;6.60;;;2.27;;
29246;SDS011;16272;48.188;9.964;2022-08-01T14:37:04;6.53;;;2.20;;
29246;SDS011;16272;48.188;9.964;2022-08-01T14:39:30;6.07;;;2.25;;
29246;SDS011;16272;48.188;9.964;2022-08-01T14:41:55;6.37;;;2.17;;
29246;SDS011;16272;48.188;9.964;2022-08-01T14:44:20;7.60;;;2.20;;
29246;SDS011;16272;48.188;9.964;2022-08-01T14:46:45;7.80;;;1.97;;
29246;SDS011;16272;48.188;9.964;2022-08-01T14:49:13;8.05;;;2.67;;
29246;SDS011;16272;48.188;9.964;2022-08-01T14:51:38;7.90;;;2.63;;
29246;SDS011;16272;48.188;9.964;2022-08-01T14:54:04;9.47;;;2.97;;
29246;SDS011;16272;48.188;9.964;2022-08-01T14:56:30;9.40;;;2.97;;
29246;SDS011;16272;48.188;9.964;2022-08-01T14:58:56;6.53;;;2.73;;
29246;SDS011;16272;48.188;9.964;2022-08-01T15:01:21;10.02;;;2.70;;
29246;SDS011;16272;48.188;9.964;2022-08-01T15:03:47;8.97;;;2.63;;
29246;SDS011;16272;48.188;9.964;2022-08-01T15:06:16;7.20;;;2.65;;
29246;SDS011;16272;48.188;9.964;2022-08-01T15:08:42;6.63;;;2.40;;
29246;SDS011;16272;48.188;9.964;2022-08-01T15:11:08;7.70;;;2.50;;
29246;SDS011;16272;48.188;9.964;2022-08-01T15:13:33;7.33;;;2.37;;